sensor_id;sensor_type;location;lat;lon;timestamp;pressure;altitude;pressure_sealevel;temperature;humidity
74169;BME280;62523;53.336;83.690;2022-09-17T00:01:33;99986.50;;;4.62;62.53
74169;BME280;62523;53.336;83.690;2022-09-17T00:06:35;100002.97;;;4.65;62.26
74169;BME280;62523;53.336;83.690;2022-09-17T00:11:40;99999.50;;;4.65;62.62
74169;BME280;62523;53.336;83.690;2022-09-17T00:16:44;100000.22;;;4.71;62.29
74169;BME280;62523;53.336;83.690;2022-09-17T00:21:46;100004.53;;;4.74;62.52
74169;BME280;62523;53.336;83.690;2022-09-17T00:26:48;100001.94;;;4.72;62.50
74169;BME280;62523;53.336;83.690;2022-09-17T00:31:50;100009.75;;;4.74;62.69
74169;BME280;62523;53.336;83.690;2022-09-17T00:36:51;100015.75;;;4.78;62.24
74169;BME280;62523;53.336;83.690;2022-09-17T00:41:52;100021.72;;;4.84;62.24
74169;BME280;62523;53.336;83.690;2022-09-17T00:46:53;100024.25;;;4.87;62.14
74169;BME280;62523;53.336;83.690;2022-09-17T00:52:05;100030.38;;;4.86;61.61
74169;BME280;62523;53.336;83.690;2022-09-17T00:57:09;100025.31;;;5.55;59.90
74169;BME280;62523;53.336;83.690;2022-09-17T01:02:11;100039.44;;;6.17;57.65
74169;BME280;62523;53.336;83.690;2022-09-17T01:07:34;100037.41;;;5.95;58.21
74169;BME280;62523;53.336;83.690;2022-09-17T01:28:40;100051.22;;;5.27;60.68
74169;BME280;62523;53.336;83.690;2022-09-17T01:33:55;100054.47;;;5.38;60.62
74169;BME280;62523;53.336;83.690;2022-09-17T01:44:28;100062.25;;;5.75;59.30
74169;BME280;62523;53.336;83.690;2022-09-17T01:49:32;100058.97;;;6.05;58.06
74169;BME280;62523;53.336;83.690;2022-09-17T01:55:03;100060.41;;;6.15;57.95
74169;BME280;62523;53.336;83.690;2022-09-17T02:00:11;100052.91;;;6.35;57.20
74169;BME280;62523;53.336;83.690;2022-09-17T02:05:21;100063.63;;;6.57;56.31
74169;BME280;62523;53.336;83.690;2022-09-17T02:10:33;100058.22;;;6.64;56.14
74169;BME280;62523;53.336;83.690;2022-09-17T02:15:41;100063.25;;;6.71;55.80
74169;BME280;62523;53.336;83.690;2022-09-17T02:20:51;100068.47;;;7.01;54.84
74169;BME280;62523;53.336;83.690;2022-09-17T02:26:01;100057.59;;;7.15;55.13
74169;BME280;62523;53.336;83.690;2022-09-17T02:31:04;100061.81;;;7.49;53.72
74169;BME280;62523;53.336;83.690;2022-09-17T02:36:06;100067.03;;;7.49;53.51
74169;BME280;62523;53.336;83.690;2022-09-17T02:41:14;100070.06;;;7.63;53.20
74169;BME280;62523;53.336;83.690;2022-09-17T02:57:18;100063.16;;;8.39;50.95
74169;BME280;62523;53.336;83.690;2022-09-17T03:02:38;100056.50;;;8.54;51.23
74169;BME280;62523;53.336;83.690;2022-09-17T03:07:41;100053.22;;;8.72;50.79
74169;BME280;62523;53.336;83.690;2022-09-17T03:12:42;100054.16;;;8.71;50.70
74169;BME280;62523;53.336;83.690;2022-09-17T03:17:43;100043.78;;;8.90;50.44
74169;BME280;62523;53.336;83.690;2022-09-17T03:22:44;100051.34;;;8.99;50.25
74169;BME280;62523;53.336;83.690;2022-09-17T03:27:47;100059.84;;;9.06;50.40
74169;BME280;62523;53.336;83.690;2022-09-17T03:32:48;100054.56;;;9.30;50.02
74169;BME280;62523;53.336;83.690;2022-09-17T03:37:49;100049.41;;;9.49;50.16
74169;BME280;62523;53.336;83.690;2022-09-17T03:42:50;100055.03;;;9.61;50.31
74169;BME280;62523;53.336;83.690;2022-09-17T03:47:51;100050.84;;;9.78;49.89
74169;BME280;62523;53.336;83.690;2022-09-17T03:52:52;100049.56;;;9.88;49.29
74169;BME280;62523;53.336;83.690;2022-09-17T03:57:54;100058.47;;;10.27;48.71
74169;BME280;62523;53.336;83.690;2022-09-17T04:02:56;100044.72;;;10.80;48.14
74169;BME280;62523;53.336;83.690;2022-09-17T04:07:57;100049.25;;;10.76;47.66
74169;BME280;62523;53.336;83.690;2022-09-17T04:12:58;100048.84;;;10.85;47.79
74169;BME280;62523;53.336;83.690;2022-09-17T04:17:59;100048.41;;;10.95;47.28
74169;BME280;62523;53.336;83.690;2022-09-17T04:23:00;100035.63;;;11.42;45.91
74169;BME280;62523;53.336;83.690;2022-09-17T04:28:02;100032.25;;;11.58;45.25
74169;BME280;62523;53.336;83.690;2022-09-17T04:33:04;100036.97;;;11.51;45.04
74169;BME280;62523;53.336;83.690;2022-09-17T04:38:06;100039.84;;;12.00;43.68
74169;BME280;62523;53.336;83.690;2022-09-17T04:43:07;100033.78;;;12.16;42.11
74169;BME280;62523;53.336;83.690;2022-09-17T04:48:10;100038.97;;;12.35;42.82
74169;BME280;62523;53.336;83.690;2022-09-17T04:53:11;100023.03;;;12.85;40.67
74169;BME280;62523;53.336;83.690;2022-09-17T04:58:13;100034.06;;;12.94;39.91
74169;BME280;62523;53.336;83.690;2022-09-17T05:03:14;100008.78;;;12.72;39.33
74169;BME280;62523;53.336;83.690;2022-09-17T05:08:15;100020.34;;;13.19;38.67
74169;BME280;62523;53.336;83.690;2022-09-17T05:13:16;100016.47;;;13.24;37.97
74169;BME280;62523;53.336;83.690;2022-09-17T05:18:18;100013.59;;;13.45;38.26
74169;BME280;62523;53.336;83.690;2022-09-17T05:23:19;100002.00;;;13.31;38.14
74169;BME280;62523;53.336;83.690;2022-09-17T05:28:21;99993.34;;;13.60;36.79
74169;BME280;62523;53.336;83.690;2022-09-17T05:33:22;99997.41;;;13.65;36.29
74169;BME280;62523;53.336;83.690;2022-09-17T05:38:23;99987.91;;;13.91;36.20
74169;BME280;62523;53.336;83.690;2022-09-17T05:43:24;99990.91;;;13.71;35.67
74169;BME280;62523;53.336;83.690;2022-09-17T05:48:26;99987.31;;;14.17;35.45
74169;BME280;62523;53.336;83.690;2022-09-17T05:53:27;99992.59;;;13.72;36.03
74169;BME280;62523;53.336;83.690;2022-09-17T05:58:28;99989.97;;;14.17;35.09
74169;BME280;62523;53.336;83.690;2022-09-17T06:03:29;99984.31;;;14.37;34.61
74169;BME280;62523;53.336;83.690;2022-09-17T06:08:32;99985.59;;;14.01;34.71
74169;BME280;62523;53.336;83.690;2022-09-17T06:13:39;99977.75;;;14.43;33.50
74169;BME280;62523;53.336;83.690;2022-09-17T06:18:40;99960.44;;;14.51;33.52
74169;BME280;62523;53.336;83.690;2022-09-17T06:23:41;99967.09;;;14.59;33.10
74169;BME280;62523;53.336;83.690;2022-09-17T06:28:44;99951.53;;;14.38;33.46
74169;BME280;62523;53.336;83.690;2022-09-17T06:33:45;99963.88;;;14.68;33.30
74169;BME280;62523;53.336;83.690;2022-09-17T06:38:48;99965.53;;;14.83;32.88
74169;BME280;62523;53.336;83.690;2022-09-17T06:43:54;99964.41;;;14.73;31.37
74169;BME280;62523;53.336;83.690;2022-09-17T06:48:58;99957.03;;;14.49;32.38
74169;BME280;62523;53.336;83.690;2022-09-17T06:54:00;99953.81;;;14.73;32.54
74169;BME280;62523;53.336;83.690;2022-09-17T06:59:02;99957.00;;;14.92;31.48
74169;BME280;62523;53.336;83.690;2022-09-17T07:04:03;99947.75;;;14.71;31.61
74169;BME280;62523;53.336;83.690;2022-09-17T07:09:04;99959.50;;;14.67;31.32
74169;BME280;62523;53.336;83.690;2022-09-17T07:14:07;99953.13;;;14.84;31.68
74169;BME280;62523;53.336;83.690;2022-09-17T07:19:08;99956.03;;;15.21;31.47
74169;BME280;62523;53.336;83.690;2022-09-17T07:24:09;99946.59;;;14.75;31.44
74169;BME280;62523;53.336;83.690;2022-09-17T07:29:10;99941.34;;;15.02;30.94
74169;BME280;62523;53.336;83.690;2022-09-17T07:34:12;99946.44;;;15.05;31.37
74169;BME280;62523;53.336;83.690;2022-09-17T07:39:13;99940.69;;;14.99;31.40
74169;BME280;62523;53.336;83.690;2022-09-17T07:44:14;99933.34;;;15.17;30.94
74169;BME280;62523;53.336;83.690;2022-09-17T07:49:16;99931.72;;;15.41;30.99
74169;BME280;62523;53.336;83.690;2022-09-17T07:54:18;99937.91;;;15.14;30.66
74169;BME280;62523;53.336;83.690;2022-09-17T07:59:19;99933.88;;;15.22;30.51
74169;BME280;62523;53.336;83.690;2022-09-17T08:04:21;99932.59;;;15.14;30.30
74169;BME280;62523;53.336;83.690;2022-09-17T08:09:22;99927.28;;;15.14;30.80
74169;BME280;62523;53.336;83.690;2022-09-17T08:14:24;99919.81;;;15.07;30.68
74169;BME280;62523;53.336;83.690;2022-09-17T08:19:25;99930.13;;;15.11;30.21
74169;BME280;62523;53.336;83.690;2022-09-17T08:24:29;99915.28;;;15.49;30.31
74169;BME280;62523;53.336;83.690;2022-09-17T08:29:30;99922.59;;;15.45;30.66
74169;BME280;62523;53.336;83.690;2022-09-17T08:34:31;99917.09;;;15.61;30.58
74169;BME280;62523;53.336;83.690;2022-09-17T08:39:33;99899.63;;;15.44;30.26
74169;BME280;62523;53.336;83.690;2022-09-17T08:44:42;99922.09;;;14.99;30.61
74169;BME280;62523;53.336;83.690;2022-09-17T08:49:52;99910.66;;;15.25;30.43
74169;BME280;62523;53.336;83.690;2022-09-17T09:00:21;99908.53;;;15.30;30.57
74169;BME280;62523;53.336;83.690;2022-09-17T09:10:46;99898.53;;;15.21;31.46
74169;BME280;62523;53.336;83.690;2022-09-17T09:16:02;99901.81;;;15.65;30.92
74169;BME280;62523;53.336;83.690;2022-09-17T09:21:25;99893.47;;;15.44;30.38
74169;BME280;62523;53.336;83.690;2022-09-17T09:26:45;99896.56;;;15.50;30.58
74169;BME280;62523;53.336;83.690;2022-09-17T09:37:30;99890.63;;;15.47;30.12
74169;BME280;62523;53.336;83.690;2022-09-17T09:42:34;99883.59;;;15.46;29.59
74169;BME280;62523;53.336;83.690;2022-09-17T10:03:17;99882.78;;;15.58;29.49
74169;BME280;62523;53.336;83.690;2022-09-17T10:08:19;99886.69;;;15.52;29.70
74169;BME280;62523;53.336;83.690;2022-09-17T10:13:21;99880.22;;;15.56;29.50
74169;BME280;62523;53.336;83.690;2022-09-17T10:18:23;99880.94;;;15.46;30.10
74169;BME280;62523;53.336;83.690;2022-09-17T10:23:27;99882.75;;;15.32;29.94
74169;BME280;62523;53.336;83.690;2022-09-17T10:28:49;99876.81;;;15.54;29.93
74169;BME280;62523;53.336;83.690;2022-09-17T10:34:00;99868.84;;;15.54;29.97
74169;BME280;62523;53.336;83.690;2022-09-17T10:44:26;99888.47;;;15.39;29.45
74169;BME280;62523;53.336;83.690;2022-09-17T10:54:56;99883.81;;;15.30;29.47
74169;BME280;62523;53.336;83.690;2022-09-17T11:00:10;99876.34;;;15.22;29.74
74169;BME280;62523;53.336;83.690;2022-09-17T11:11:03;99874.53;;;15.23;30.07
74169;BME280;62523;53.336;83.690;2022-09-17T11:26:47;99890.19;;;15.00;30.86
74169;BME280;62523;53.336;83.690;2022-09-17T11:47:57;99903.19;;;14.63;32.00
74169;BME280;62523;53.336;83.690;2022-09-17T11:58:35;99890.66;;;14.37;32.44
74169;BME280;62523;53.336;83.690;2022-09-17T12:09:33;99917.50;;;14.18;33.12
74169;BME280;62523;53.336;83.690;2022-09-17T12:14:46;99912.25;;;14.02;33.28
74169;BME280;62523;53.336;83.690;2022-09-17T12:19:55;99913.28;;;13.85;33.45
74169;BME280;62523;53.336;83.690;2022-09-17T12:24:59;99928.88;;;13.75;33.97
74169;BME280;62523;53.336;83.690;2022-09-17T12:30:21;99928.22;;;13.41;34.69
74169;BME280;62523;53.336;83.690;2022-09-17T12:35:41;99931.56;;;13.29;34.87
74169;BME280;62523;53.336;83.690;2022-09-17T12:40:59;99937.88;;;13.26;35.31
74169;BME280;62523;53.336;83.690;2022-09-17T12:56:58;99940.56;;;12.79;36.25
74169;BME280;62523;53.336;83.690;2022-09-17T13:02:17;99937.03;;;12.62;36.59
74169;BME280;62523;53.336;83.690;2022-09-17T13:07:38;99940.06;;;12.72;36.09
74169;BME280;62523;53.336;83.690;2022-09-17T13:18:14;99948.97;;;12.54;36.33
74169;BME280;62523;53.336;83.690;2022-09-17T13:23:31;99948.38;;;12.33;36.59
74169;BME280;62523;53.336;83.690;2022-09-17T13:28:45;99959.78;;;12.33;37.07
74169;BME280;62523;53.336;83.690;2022-09-17T13:34:01;99957.25;;;12.14;37.01
74169;BME280;62523;53.336;83.690;2022-09-17T13:39:04;99961.66;;;12.31;36.92
74169;BME280;62523;53.336;83.690;2022-09-17T13:44:08;99961.13;;;12.24;37.04
74169;BME280;62523;53.336;83.690;2022-09-17T13:49:14;99957.56;;;12.08;37.13
74169;BME280;62523;53.336;83.690;2022-09-17T13:54:18;99951.69;;;11.85;37.84
74169;BME280;62523;53.336;83.690;2022-09-17T13:59:24;99960.84;;;12.13;37.31
74169;BME280;62523;53.336;83.690;2022-09-17T14:15:34;99981.81;;;11.81;38.06
74169;BME280;62523;53.336;83.690;2022-09-17T14:20:36;99977.44;;;11.80;38.01
74169;BME280;62523;53.336;83.690;2022-09-17T14:25:42;99982.34;;;11.71;38.19
74169;BME280;62523;53.336;83.690;2022-09-17T14:30:48;99979.22;;;11.80;38.39
74169;BME280;62523;53.336;83.690;2022-09-17T14:36:01;99978.63;;;11.75;38.53
74169;BME280;62523;53.336;83.690;2022-09-17T14:46:41;99980.56;;;11.71;38.65
74169;BME280;62523;53.336;83.690;2022-09-17T14:51:45;99978.22;;;11.65;38.83
74169;BME280;62523;53.336;83.690;2022-09-17T15:02:02;99982.16;;;11.39;39.70
74169;BME280;62523;53.336;83.690;2022-09-17T15:07:08;99989.38;;;11.53;39.68
74169;BME280;62523;53.336;83.690;2022-09-17T15:12:16;99985.28;;;11.47;39.49
74169;BME280;62523;53.336;83.690;2022-09-17T15:17:17;99993.56;;;11.39;39.92
74169;BME280;62523;53.336;83.690;2022-09-17T15:22:33;99992.16;;;11.32;40.10
74169;BME280;62523;53.336;83.690;2022-09-17T15:27:43;99989.75;;;11.27;40.22
74169;BME280;62523;53.336;83.690;2022-09-17T15:32:52;99988.41;;;11.19;40.58
74169;BME280;62523;53.336;83.690;2022-09-17T15:37:56;99981.47;;;11.16;40.65
74169;BME280;62523;53.336;83.690;2022-09-17T15:53:23;99986.56;;;11.02;41.51
74169;BME280;62523;53.336;83.690;2022-09-17T15:58:52;99982.03;;;10.86;41.87
74169;BME280;62523;53.336;83.690;2022-09-17T16:09:01;99981.81;;;10.72;42.42
74169;BME280;62523;53.336;83.690;2022-09-17T16:14:03;99985.50;;;10.68;42.54
74169;BME280;62523;53.336;83.690;2022-09-17T16:19:05;99976.38;;;10.37;43.34
74169;BME280;62523;53.336;83.690;2022-09-17T16:24:06;99990.97;;;10.44;43.37
74169;BME280;62523;53.336;83.690;2022-09-17T16:29:14;99987.25;;;10.30;43.70
74169;BME280;62523;53.336;83.690;2022-09-17T16:34:17;99974.66;;;10.16;44.00
74169;BME280;62523;53.336;83.690;2022-09-17T16:39:18;99985.00;;;10.00;44.67
74169;BME280;62523;53.336;83.690;2022-09-17T16:44:19;99981.50;;;9.99;44.67
74169;BME280;62523;53.336;83.690;2022-09-17T16:49:22;99991.00;;;9.83;45.33
74169;BME280;62523;53.336;83.690;2022-09-17T16:54:24;99973.53;;;9.80;45.35
74169;BME280;62523;53.336;83.690;2022-09-17T16:59:25;99975.94;;;9.66;45.66
74169;BME280;62523;53.336;83.690;2022-09-17T17:04:26;99977.31;;;9.75;45.73
74169;BME280;62523;53.336;83.690;2022-09-17T17:09:27;99969.94;;;9.62;46.06
74169;BME280;62523;53.336;83.690;2022-09-17T17:14:28;99979.00;;;9.55;46.50
74169;BME280;62523;53.336;83.690;2022-09-17T17:19:30;99975.28;;;9.39;46.63
74169;BME280;62523;53.336;83.690;2022-09-17T17:24:33;99986.97;;;9.32;47.07
74169;BME280;62523;53.336;83.690;2022-09-17T17:29:34;99978.66;;;9.20;47.31
74169;BME280;62523;53.336;83.690;2022-09-17T17:34:36;99976.09;;;9.19;47.45
74169;BME280;62523;53.336;83.690;2022-09-17T17:39:37;99976.34;;;9.13;47.72
74169;BME280;62523;53.336;83.690;2022-09-17T17:44:38;99981.97;;;9.04;48.21
74169;BME280;62523;53.336;83.690;2022-09-17T17:49:40;99978.56;;;9.01;48.18
74169;BME280;62523;53.336;83.690;2022-09-17T17:54:41;99985.66;;;8.76;49.04
74169;BME280;62523;53.336;83.690;2022-09-17T17:59:42;99974.13;;;8.80;49.28
74169;BME280;62523;53.336;83.690;2022-09-17T18:04:44;99985.84;;;8.71;49.52
74169;BME280;62523;53.336;83.690;2022-09-17T18:09:45;99982.16;;;8.75;49.70
74169;BME280;62523;53.336;83.690;2022-09-17T18:14:47;99984.16;;;8.69;49.72
74169;BME280;62523;53.336;83.690;2022-09-17T18:19:48;99985.38;;;8.60;50.14
74169;BME280;62523;53.336;83.690;2022-09-17T18:24:51;99984.84;;;8.52;50.66
74169;BME280;62523;53.336;83.690;2022-09-17T18:29:52;99974.31;;;8.52;50.56
74169;BME280;62523;53.336;83.690;2022-09-17T18:34:53;99978.22;;;8.40;51.11
74169;BME280;62523;53.336;83.690;2022-09-17T18:39:55;99971.19;;;8.42;51.36
74169;BME280;62523;53.336;83.690;2022-09-17T18:44:56;99971.66;;;8.28;51.66
74169;BME280;62523;53.336;83.690;2022-09-17T18:49:58;99974.75;;;8.39;51.47
74169;BME280;62523;53.336;83.690;2022-09-17T18:54:59;99966.34;;;8.30;51.83
74169;BME280;62523;53.336;83.690;2022-09-17T19:00:02;99969.19;;;8.24;52.03
74169;BME280;62523;53.336;83.690;2022-09-17T19:05:07;99964.22;;;8.16;52.68
74169;BME280;62523;53.336;83.690;2022-09-17T19:10:08;99974.94;;;8.10;52.72
74169;BME280;62523;53.336;83.690;2022-09-17T19:15:10;99971.00;;;8.21;52.69
74169;BME280;62523;53.336;83.690;2022-09-17T19:20:11;99968.97;;;8.30;52.49
74169;BME280;62523;53.336;83.690;2022-09-17T19:25:12;99970.28;;;8.18;52.99
74169;BME280;62523;53.336;83.690;2022-09-17T19:30:13;99966.03;;;8.14;53.39
74169;BME280;62523;53.336;83.690;2022-09-17T19:35:15;99963.50;;;8.11;53.62
74169;BME280;62523;53.336;83.690;2022-09-17T19:40:17;99975.47;;;7.94;54.23
74169;BME280;62523;53.336;83.690;2022-09-17T19:45:21;99967.25;;;7.78;54.92
74169;BME280;62523;53.336;83.690;2022-09-17T19:50:22;99971.56;;;7.81;54.80
74169;BME280;62523;53.336;83.690;2022-09-17T19:55:23;99966.50;;;8.00;54.40
74169;BME280;62523;53.336;83.690;2022-09-17T20:00:24;99977.25;;;7.94;54.53
74169;BME280;62523;53.336;83.690;2022-09-17T20:05:26;99974.94;;;7.85;55.27
74169;BME280;62523;53.336;83.690;2022-09-17T20:10:27;99970.59;;;7.84;54.77
74169;BME280;62523;53.336;83.690;2022-09-17T20:15:33;99975.09;;;7.80;55.25
74169;BME280;62523;53.336;83.690;2022-09-17T20:20:39;99972.63;;;7.75;55.24
74169;BME280;62523;53.336;83.690;2022-09-17T20:25:41;99971.03;;;7.71;55.57
74169;BME280;62523;53.336;83.690;2022-09-17T20:30:44;99977.88;;;7.75;55.31
74169;BME280;62523;53.336;83.690;2022-09-17T20:35:46;99972.78;;;7.71;55.37
74169;BME280;62523;53.336;83.690;2022-09-17T20:40:47;99989.69;;;7.62;56.04
74169;BME280;62523;53.336;83.690;2022-09-17T20:45:54;99991.50;;;7.60;55.87
74169;BME280;62523;53.336;83.690;2022-09-17T20:56:10;99997.13;;;7.49;56.36
74169;BME280;62523;53.336;83.690;2022-09-17T21:01:14;99996.50;;;7.41;56.63
74169;BME280;62523;53.336;83.690;2022-09-17T21:06:22;100001.09;;;7.34;57.13
74169;BME280;62523;53.336;83.690;2022-09-17T21:11:24;99997.34;;;7.42;56.99
74169;BME280;62523;53.336;83.690;2022-09-17T21:16:25;100007.84;;;7.42;57.01
74169;BME280;62523;53.336;83.690;2022-09-17T21:21:26;99996.88;;;7.29;57.22
74169;BME280;62523;53.336;83.690;2022-09-17T21:26:28;99997.81;;;7.28;57.53
74169;BME280;62523;53.336;83.690;2022-09-17T21:31:31;100007.81;;;7.15;58.45
74169;BME280;62523;53.336;83.690;2022-09-17T21:36:36;100011.47;;;7.09;58.66
74169;BME280;62523;53.336;83.690;2022-09-17T21:41:37;100006.31;;;7.08;58.27
74169;BME280;62523;53.336;83.690;2022-09-17T21:46:39;100014.38;;;6.70;60.24
74169;BME280;62523;53.336;83.690;2022-09-17T21:51:41;100021.53;;;6.65;60.25
74169;BME280;62523;53.336;83.690;2022-09-17T21:56:43;100020.88;;;6.57;60.84
74169;BME280;62523;53.336;83.690;2022-09-17T22:01:46;100019.53;;;6.44;60.94
74169;BME280;62523;53.336;83.690;2022-09-17T22:06:48;100021.69;;;6.28;62.17
74169;BME280;62523;53.336;83.690;2022-09-17T22:11:51;100025.50;;;6.18;62.57
74169;BME280;62523;53.336;83.690;2022-09-17T22:16:54;100027.59;;;6.03;63.00
74169;BME280;62523;53.336;83.690;2022-09-17T22:21:56;100032.16;;;5.95;63.35
74169;BME280;62523;53.336;83.690;2022-09-17T22:26:57;100030.31;;;6.00;63.37
74169;BME280;62523;53.336;83.690;2022-09-17T22:31:58;100030.50;;;5.91;63.87
74169;BME280;62523;53.336;83.690;2022-09-17T22:37:00;100024.66;;;5.81;64.09
74169;BME280;62523;53.336;83.690;2022-09-17T22:42:03;100028.00;;;5.86;64.33
74169;BME280;62523;53.336;83.690;2022-09-17T22:47:04;100038.25;;;5.95;64.08
74169;BME280;62523;53.336;83.690;2022-09-17T22:52:05;100034.78;;;5.93;64.14
74169;BME280;62523;53.336;83.690;2022-09-17T22:57:06;100041.81;;;5.91;63.96
74169;BME280;62523;53.336;83.690;2022-09-17T23:02:07;100047.16;;;5.87;64.36
74169;BME280;62523;53.336;83.690;2022-09-17T23:07:09;100043.25;;;5.69;65.00
74169;BME280;62523;53.336;83.690;2022-09-17T23:12:11;100043.41;;;5.63;65.79
74169;BME280;62523;53.336;83.690;2022-09-17T23:17:12;100053.19;;;5.54;65.87
74169;BME280;62523;53.336;83.690;2022-09-17T23:22:13;100056.69;;;5.55;66.05
74169;BME280;62523;53.336;83.690;2022-09-17T23:27:14;100053.38;;;5.47;66.76
74169;BME280;62523;53.336;83.690;2022-09-17T23:32:15;100055.31;;;5.39;66.71
74169;BME280;62523;53.336;83.690;2022-09-17T23:37:17;100054.81;;;5.23;67.60
74169;BME280;62523;53.336;83.690;2022-09-17T23:42:19;100054.50;;;5.35;67.32
74169;BME280;62523;53.336;83.690;2022-09-17T23:47:20;100055.16;;;5.46;66.75
74169;BME280;62523;53.336;83.690;2022-09-17T23:52:21;100062.94;;;5.48;66.39
74169;BME280;62523;53.336;83.690;2022-09-17T23:57:23;100060.56;;;5.37;67.12
